sensor_id;sensor_type;location;lat;lon;timestamp;temperature;humidity
7296;DHT22;40758;54.038;11.684;2022-08-06T00:00:08;14.50;99.90
7296;DHT22;40758;54.038;11.684;2022-08-06T00:02:39;14.50;99.90
7296;DHT22;40758;54.038;11.684;2022-08-06T00:05:08;14.50;99.90
7296;DHT22;40758;54.038;11.684;2022-08-06T00:07:45;14.50;99.90
7296;DHT22;40758;54.038;11.684;2022-08-06T00:10:19;14.50;99.90
7296;DHT22;40758;54.038;11.684;2022-08-06T00:12:56;14.50;99.90
7296;DHT22;40758;54.038;11.684;2022-08-06T00:15:30;14.40;99.90
7296;DHT22;40758;54.038;11.684;2022-08-06T00:18:23;14.40;99.90
7296;DHT22;40758;54.038;11.684;2022-08-06T00:20:52;14.40;99.90
7296;DHT22;40758;54.038;11.684;2022-08-06T00:23:23;14.40;99.90
7296;DHT22;40758;54.038;11.684;2022-08-06T00:25:52;14.50;99.90
7296;DHT22;40758;54.038;11.684;2022-08-06T00:28:24;14.50;99.90
7296;DHT22;40758;54.038;11.684;2022-08-06T00:30:58;14.40;99.90
7296;DHT22;40758;54.038;11.684;2022-08-06T00:33:38;14.50;99.90
7296;DHT22;40758;54.038;11.684;2022-08-06T00:36:22;14.50;99.90
7296;DHT22;40758;54.038;11.684;2022-08-06T00:38:57;14.60;99.90
7296;DHT22;40758;54.038;11.684;2022-08-06T00:41:34;14.50;99.90
7296;DHT22;40758;54.038;11.684;2022-08-06T00:44:13;14.40;99.90
7296;DHT22;40758;54.038;11.684;2022-08-06T00:46:57;14.30;99.90
7296;DHT22;40758;54.038;11.684;2022-08-06T00:49:48;14.30;99.90
7296;DHT22;40758;54.038;11.684;2022-08-06T00:52:17;14.30;99.90
7296;DHT22;40758;54.038;11.684;2022-08-06T00:54:48;14.40;99.90
7296;DHT22;40758;54.038;11.684;2022-08-06T00:57:17;14.30;99.90
7296;DHT22;40758;54.038;11.684;2022-08-06T00:59:49;14.30;99.90
7296;DHT22;40758;54.038;11.684;2022-08-06T01:02:18;14.30;99.90
7296;DHT22;40758;54.038;11.684;2022-08-06T01:04:49;14.30;99.90
7296;DHT22;40758;54.038;11.684;2022-08-06T01:07:27;14.30;99.90
7296;DHT22;40758;54.038;11.684;2022-08-06T01:10:18;14.30;99.90
7296;DHT22;40758;54.038;11.684;2022-08-06T01:12:57;14.30;99.90
7296;DHT22;40758;54.038;11.684;2022-08-06T01:15:31;14.30;99.90
7296;DHT22;40758;54.038;11.684;2022-08-06T01:18:28;14.30;99.90
7296;DHT22;40758;54.038;11.684;2022-08-06T01:21:13;14.30;99.90
7296;DHT22;40758;54.038;11.684;2022-08-06T01:24:47;14.30;99.90
7296;DHT22;40758;54.038;11.684;2022-08-06T01:27:52;14.30;99.90
7296;DHT22;40758;54.038;11.684;2022-08-06T01:30:30;14.20;99.90
7296;DHT22;40758;54.038;11.684;2022-08-06T01:33:09;14.30;99.90
7296;DHT22;40758;54.038;11.684;2022-08-06T01:35:54;14.20;99.90
7296;DHT22;40758;54.038;11.684;2022-08-06T01:38:31;14.30;99.90
7296;DHT22;40758;54.038;11.684;2022-08-06T01:41:06;14.30;99.90
7296;DHT22;40758;54.038;11.684;2022-08-06T01:43:41;14.30;99.90
7296;DHT22;40758;54.038;11.684;2022-08-06T01:46:31;14.40;99.90
7296;DHT22;40758;54.038;11.684;2022-08-06T01:49:10;14.50;99.90
7296;DHT22;40758;54.038;11.684;2022-08-06T01:52:02;14.60;99.90
7296;DHT22;40758;54.038;11.684;2022-08-06T01:54:54;14.70;99.90
7296;DHT22;40758;54.038;11.684;2022-08-06T01:57:27;14.80;99.90
7296;DHT22;40758;54.038;11.684;2022-08-06T02:00:21;14.80;99.90
7296;DHT22;40758;54.038;11.684;2022-08-06T02:02:59;14.80;99.90
7296;DHT22;40758;54.038;11.684;2022-08-06T02:05:34;14.80;99.90
7296;DHT22;40758;54.038;11.684;2022-08-06T02:08:21;14.80;99.90
7296;DHT22;40758;54.038;11.684;2022-08-06T02:11:08;14.70;99.90
7296;DHT22;40758;54.038;11.684;2022-08-06T02:14:00;14.50;99.90
7296;DHT22;40758;54.038;11.684;2022-08-06T02:16:39;14.40;99.90
7296;DHT22;40758;54.038;11.684;2022-08-06T02:19:12;14.30;99.90
7296;DHT22;40758;54.038;11.684;2022-08-06T02:22:05;14.30;99.90
7296;DHT22;40758;54.038;11.684;2022-08-06T02:24:37;14.20;99.90
7296;DHT22;40758;54.038;11.684;2022-08-06T02:27:15;14.20;99.90
7296;DHT22;40758;54.038;11.684;2022-08-06T02:30:07;14.20;99.90
7296;DHT22;40758;54.038;11.684;2022-08-06T02:32:39;14.10;99.90
7296;DHT22;40758;54.038;11.684;2022-08-06T02:35:10;14.10;99.90
7296;DHT22;40758;54.038;11.684;2022-08-06T02:37:45;14.10;99.90
7296;DHT22;40758;54.038;11.684;2022-08-06T02:40:34;14.10;99.90
7296;DHT22;40758;54.038;11.684;2022-08-06T02:43:15;14.10;99.90
7296;DHT22;40758;54.038;11.684;2022-08-06T02:45:57;14.10;99.90
7296;DHT22;40758;54.038;11.684;2022-08-06T02:48:39;14.00;99.90
7296;DHT22;40758;54.038;11.684;2022-08-06T02:51:17;14.00;99.90
7296;DHT22;40758;54.038;11.684;2022-08-06T02:54:15;14.00;99.90
7296;DHT22;40758;54.038;11.684;2022-08-06T02:56:53;14.00;99.90
7296;DHT22;40758;54.038;11.684;2022-08-06T02:59:33;13.90;99.90
7296;DHT22;40758;54.038;11.684;2022-08-06T03:02:09;13.90;99.90
7296;DHT22;40758;54.038;11.684;2022-08-06T03:04:46;13.90;99.90
7296;DHT22;40758;54.038;11.684;2022-08-06T03:07:25;13.90;99.90
7296;DHT22;40758;54.038;11.684;2022-08-06T03:09:58;13.90;99.90
7296;DHT22;40758;54.038;11.684;2022-08-06T03:12:39;13.90;99.90
7296;DHT22;40758;54.038;11.684;2022-08-06T03:15:14;13.90;99.90
7296;DHT22;40758;54.038;11.684;2022-08-06T03:18:06;13.80;99.90
7296;DHT22;40758;54.038;11.684;2022-08-06T03:20:39;13.80;99.90
7296;DHT22;40758;54.038;11.684;2022-08-06T03:23:12;13.70;99.90
7296;DHT22;40758;54.038;11.684;2022-08-06T03:25:48;13.70;99.90
7296;DHT22;40758;54.038;11.684;2022-08-06T03:28:20;13.70;99.90
7296;DHT22;40758;54.038;11.684;2022-08-06T03:30:50;13.70;99.90
7296;DHT22;40758;54.038;11.684;2022-08-06T03:33:22;13.90;99.90
7296;DHT22;40758;54.038;11.684;2022-08-06T03:36:14;13.80;99.90
7296;DHT22;40758;54.038;11.684;2022-08-06T03:38:54;13.80;99.90
7296;DHT22;40758;54.038;11.684;2022-08-06T03:41:30;13.80;99.90
7296;DHT22;40758;54.038;11.684;2022-08-06T03:44:14;13.70;99.90
7296;DHT22;40758;54.038;11.684;2022-08-06T03:46:46;13.80;99.90
7296;DHT22;40758;54.038;11.684;2022-08-06T03:49:23;13.80;99.90
7296;DHT22;40758;54.038;11.684;2022-08-06T03:52:12;13.80;99.90
7296;DHT22;40758;54.038;11.684;2022-08-06T03:54:52;13.70;99.90
7296;DHT22;40758;54.038;11.684;2022-08-06T03:57:35;13.70;99.90
7296;DHT22;40758;54.038;11.684;2022-08-06T04:00:18;13.70;99.90
7296;DHT22;40758;54.038;11.684;2022-08-06T04:02:56;13.80;99.90
7296;DHT22;40758;54.038;11.684;2022-08-06T04:05:30;13.80;99.90
7296;DHT22;40758;54.038;11.684;2022-08-06T04:08:04;13.90;99.90
7296;DHT22;40758;54.038;11.684;2022-08-06T04:10:38;13.90;99.90
7296;DHT22;40758;54.038;11.684;2022-08-06T04:13:25;13.90;99.90
7296;DHT22;40758;54.038;11.684;2022-08-06T04:16:16;14.00;99.90
7296;DHT22;40758;54.038;11.684;2022-08-06T04:19:05;14.00;99.90
7296;DHT22;40758;54.038;11.684;2022-08-06T04:21:41;14.00;99.90
7296;DHT22;40758;54.038;11.684;2022-08-06T04:24:40;14.10;99.90
7296;DHT22;40758;54.038;11.684;2022-08-06T04:27:10;14.10;99.90
7296;DHT22;40758;54.038;11.684;2022-08-06T04:29:45;14.10;99.90
7296;DHT22;40758;54.038;11.684;2022-08-06T04:32:29;14.10;99.90
7296;DHT22;40758;54.038;11.684;2022-08-06T04:35:12;14.10;99.90
7296;DHT22;40758;54.038;11.684;2022-08-06T04:38:03;14.10;99.90
7296;DHT22;40758;54.038;11.684;2022-08-06T04:40:37;14.10;99.90
7296;DHT22;40758;54.038;11.684;2022-08-06T04:43:20;14.10;99.90
7296;DHT22;40758;54.038;11.684;2022-08-06T04:46:05;14.10;99.90
7296;DHT22;40758;54.038;11.684;2022-08-06T04:48:46;14.10;99.90
7296;DHT22;40758;54.038;11.684;2022-08-06T04:51:23;14.10;99.90
7296;DHT22;40758;54.038;11.684;2022-08-06T04:54:13;14.20;99.90
7296;DHT22;40758;54.038;11.684;2022-08-06T04:56:45;14.20;99.90
7296;DHT22;40758;54.038;11.684;2022-08-06T04:59:16;14.20;99.90
7296;DHT22;40758;54.038;11.684;2022-08-06T05:01:45;14.30;99.90
7296;DHT22;40758;54.038;11.684;2022-08-06T05:04:27;14.30;99.90
7296;DHT22;40758;54.038;11.684;2022-08-06T05:07:09;14.40;99.90
7296;DHT22;40758;54.038;11.684;2022-08-06T05:09:43;14.40;99.90
7296;DHT22;40758;54.038;11.684;2022-08-06T05:12:33;14.50;99.90
7296;DHT22;40758;54.038;11.684;2022-08-06T05:15:09;14.60;99.90
7296;DHT22;40758;54.038;11.684;2022-08-06T05:17:56;14.70;99.90
7296;DHT22;40758;54.038;11.684;2022-08-06T05:20:35;14.80;99.90
7296;DHT22;40758;54.038;11.684;2022-08-06T05:23:11;14.90;99.90
7296;DHT22;40758;54.038;11.684;2022-08-06T05:25:47;15.00;99.90
7296;DHT22;40758;54.038;11.684;2022-08-06T05:28:23;15.10;99.90
7296;DHT22;40758;54.038;11.684;2022-08-06T05:30:54;15.70;99.90
7296;DHT22;40758;54.038;11.684;2022-08-06T05:33:26;16.90;99.90
7296;DHT22;40758;54.038;11.684;2022-08-06T05:36:04;17.80;99.90
7296;DHT22;40758;54.038;11.684;2022-08-06T05:38:46;18.60;99.90
7296;DHT22;40758;54.038;11.684;2022-08-06T05:41:26;19.00;99.90
7296;DHT22;40758;54.038;11.684;2022-08-06T05:44:05;19.50;99.90
7296;DHT22;40758;54.038;11.684;2022-08-06T05:46:40;19.70;99.90
7296;DHT22;40758;54.038;11.684;2022-08-06T05:49:17;20.20;99.90
7296;DHT22;40758;54.038;11.684;2022-08-06T05:52:20;20.00;99.90
7296;DHT22;40758;54.038;11.684;2022-08-06T05:54:58;20.20;99.90
7296;DHT22;40758;54.038;11.684;2022-08-06T05:57:36;20.20;99.90
7296;DHT22;40758;54.038;11.684;2022-08-06T06:00:16;20.30;99.90
7296;DHT22;40758;54.038;11.684;2022-08-06T06:03:01;20.50;99.90
7296;DHT22;40758;54.038;11.684;2022-08-06T06:05:34;20.90;99.90
7296;DHT22;40758;54.038;11.684;2022-08-06T06:08:25;21.50;99.90
7296;DHT22;40758;54.038;11.684;2022-08-06T06:11:07;21.70;99.90
7296;DHT22;40758;54.038;11.684;2022-08-06T06:13:41;21.30;99.90
7296;DHT22;40758;54.038;11.684;2022-08-06T06:16:33;21.10;99.90
7296;DHT22;40758;54.038;11.684;2022-08-06T06:19:20;20.60;99.90
7296;DHT22;40758;54.038;11.684;2022-08-06T06:22:11;20.90;99.90
7296;DHT22;40758;54.038;11.684;2022-08-06T06:24:52;21.60;99.90
7296;DHT22;40758;54.038;11.684;2022-08-06T06:27:37;22.40;99.90
7296;DHT22;40758;54.038;11.684;2022-08-06T06:30:18;22.40;99.90
7296;DHT22;40758;54.038;11.684;2022-08-06T06:33:13;21.40;99.90
7296;DHT22;40758;54.038;11.684;2022-08-06T06:36:15;21.00;99.90
7296;DHT22;40758;54.038;11.684;2022-08-06T06:38:59;21.00;99.90
7296;DHT22;40758;54.038;11.684;2022-08-06T06:41:36;21.10;99.90
7296;DHT22;40758;54.038;11.684;2022-08-06T06:44:15;21.30;99.90
7296;DHT22;40758;54.038;11.684;2022-08-06T06:47:14;21.50;99.90
7296;DHT22;40758;54.038;11.684;2022-08-06T06:50:05;21.90;99.90
7296;DHT22;40758;54.038;11.684;2022-08-06T06:52:46;22.30;99.90
7296;DHT22;40758;54.038;11.684;2022-08-06T06:55:22;22.00;99.90
7296;DHT22;40758;54.038;11.684;2022-08-06T06:58:18;22.70;99.90
7296;DHT22;40758;54.038;11.684;2022-08-06T07:00:55;22.50;99.90
7296;DHT22;40758;54.038;11.684;2022-08-06T07:03:45;22.20;99.90
7296;DHT22;40758;54.038;11.684;2022-08-06T07:06:19;22.50;99.90
7296;DHT22;40758;54.038;11.684;2022-08-06T07:09:10;22.50;99.90
7296;DHT22;40758;54.038;11.684;2022-08-06T07:12:06;22.90;99.90
7296;DHT22;40758;54.038;11.684;2022-08-06T07:14:46;23.00;99.90
7296;DHT22;40758;54.038;11.684;2022-08-06T07:17:29;23.10;99.90
7296;DHT22;40758;54.038;11.684;2022-08-06T07:20:18;22.80;99.90
7296;DHT22;40758;54.038;11.684;2022-08-06T07:22:58;21.90;99.90
7296;DHT22;40758;54.038;11.684;2022-08-06T07:25:49;21.50;99.90
7296;DHT22;40758;54.038;11.684;2022-08-06T07:28:22;21.00;99.90
7296;DHT22;40758;54.038;11.684;2022-08-06T07:30:56;21.90;99.90
7296;DHT22;40758;54.038;11.684;2022-08-06T07:33:37;22.90;99.90
7296;DHT22;40758;54.038;11.684;2022-08-06T07:36:29;23.60;99.90
7296;DHT22;40758;54.038;11.684;2022-08-06T07:39:07;23.40;99.90
7296;DHT22;40758;54.038;11.684;2022-08-06T07:41:53;23.10;99.90
7296;DHT22;40758;54.038;11.684;2022-08-06T07:44:43;22.70;99.90
7296;DHT22;40758;54.038;11.684;2022-08-06T07:47:27;23.10;99.90
7296;DHT22;40758;54.038;11.684;2022-08-06T07:50:22;23.50;99.90
7296;DHT22;40758;54.038;11.684;2022-08-06T07:52:54;23.50;99.90
7296;DHT22;40758;54.038;11.684;2022-08-06T07:55:27;23.20;99.90
7296;DHT22;40758;54.038;11.684;2022-08-06T07:58:07;23.60;99.90
7296;DHT22;40758;54.038;11.684;2022-08-06T08:00:39;23.90;99.90
7296;DHT22;40758;54.038;11.684;2022-08-06T08:03:16;23.90;99.90
7296;DHT22;40758;54.038;11.684;2022-08-06T08:06:24;24.10;99.90
7296;DHT22;40758;54.038;11.684;2022-08-06T08:09:03;23.30;99.90
7296;DHT22;40758;54.038;11.684;2022-08-06T08:11:40;23.80;99.90
7296;DHT22;40758;54.038;11.684;2022-08-06T08:14:30;23.70;99.90
7296;DHT22;40758;54.038;11.684;2022-08-06T08:17:00;24.60;99.90
7296;DHT22;40758;54.038;11.684;2022-08-06T08:19:31;24.40;99.90
7296;DHT22;40758;54.038;11.684;2022-08-06T08:22:04;22.70;99.90
7296;DHT22;40758;54.038;11.684;2022-08-06T08:24:42;23.00;99.90
7296;DHT22;40758;54.038;11.684;2022-08-06T08:27:22;22.70;99.90
7296;DHT22;40758;54.038;11.684;2022-08-06T08:29:53;21.50;99.90
7296;DHT22;40758;54.038;11.684;2022-08-06T08:32:26;21.90;99.90
7296;DHT22;40758;54.038;11.684;2022-08-06T08:34:55;22.80;99.90
7296;DHT22;40758;54.038;11.684;2022-08-06T08:37:26;23.00;99.90
7296;DHT22;40758;54.038;11.684;2022-08-06T08:39:59;21.90;99.90
7296;DHT22;40758;54.038;11.684;2022-08-06T08:42:35;20.40;99.90
7296;DHT22;40758;54.038;11.684;2022-08-06T08:45:11;19.40;99.90
7296;DHT22;40758;54.038;11.684;2022-08-06T08:47:50;19.00;99.90
7296;DHT22;40758;54.038;11.684;2022-08-06T08:50:27;18.90;99.90
7296;DHT22;40758;54.038;11.684;2022-08-06T08:53:03;20.90;99.90
7296;DHT22;40758;54.038;11.684;2022-08-06T08:55:35;22.00;99.90
7296;DHT22;40758;54.038;11.684;2022-08-06T08:58:26;21.20;99.90
7296;DHT22;40758;54.038;11.684;2022-08-06T09:01:11;22.20;99.90
7296;DHT22;40758;54.038;11.684;2022-08-06T09:04:02;23.40;99.90
7296;DHT22;40758;54.038;11.684;2022-08-06T09:06:32;24.20;99.90
7296;DHT22;40758;54.038;11.684;2022-08-06T09:09:06;25.10;99.90
7296;DHT22;40758;54.038;11.684;2022-08-06T09:11:43;25.30;99.90
7296;DHT22;40758;54.038;11.684;2022-08-06T09:14:36;25.50;99.90
7296;DHT22;40758;54.038;11.684;2022-08-06T09:17:11;26.00;99.40
7296;DHT22;40758;54.038;11.684;2022-08-06T09:20:04;25.40;99.90
7296;DHT22;40758;54.038;11.684;2022-08-06T09:22:37;24.30;99.90
7296;DHT22;40758;54.038;11.684;2022-08-06T09:25:36;23.70;99.90
7296;DHT22;40758;54.038;11.684;2022-08-06T09:28:32;24.70;99.90
7296;DHT22;40758;54.038;11.684;2022-08-06T09:31:09;24.00;99.90
7296;DHT22;40758;54.038;11.684;2022-08-06T09:34:00;24.50;99.90
7296;DHT22;40758;54.038;11.684;2022-08-06T09:36:52;25.00;99.90
7296;DHT22;40758;54.038;11.684;2022-08-06T09:39:33;24.30;99.90
7296;DHT22;40758;54.038;11.684;2022-08-06T09:42:37;22.80;99.90
7296;DHT22;40758;54.038;11.684;2022-08-06T09:45:20;22.60;99.90
7296;DHT22;40758;54.038;11.684;2022-08-06T09:48:12;22.60;99.90
7296;DHT22;40758;54.038;11.684;2022-08-06T09:50:49;22.50;99.90
7296;DHT22;40758;54.038;11.684;2022-08-06T09:53:23;22.20;99.90
7296;DHT22;40758;54.038;11.684;2022-08-06T09:56:16;21.70;99.90
7296;DHT22;40758;54.038;11.684;2022-08-06T09:58:48;21.40;99.90
7296;DHT22;40758;54.038;11.684;2022-08-06T10:01:22;21.80;99.90
7296;DHT22;40758;54.038;11.684;2022-08-06T10:03:56;21.20;99.90
7296;DHT22;40758;54.038;11.684;2022-08-06T10:06:50;20.10;99.90
7296;DHT22;40758;54.038;11.684;2022-08-06T10:09:22;19.60;99.90
7296;DHT22;40758;54.038;11.684;2022-08-06T10:12:17;19.30;99.90
7296;DHT22;40758;54.038;11.684;2022-08-06T10:14:53;20.40;99.90
7296;DHT22;40758;54.038;11.684;2022-08-06T10:17:45;22.60;99.90
7296;DHT22;40758;54.038;11.684;2022-08-06T10:20:22;23.40;99.90
7296;DHT22;40758;54.038;11.684;2022-08-06T10:22:53;23.50;99.90
7296;DHT22;40758;54.038;11.684;2022-08-06T10:25:25;22.70;99.90
7296;DHT22;40758;54.038;11.684;2022-08-06T10:28:12;21.80;99.90
7296;DHT22;40758;54.038;11.684;2022-08-06T10:30:41;20.90;99.90
7296;DHT22;40758;54.038;11.684;2022-08-06T10:33:12;20.30;99.90
7296;DHT22;40758;54.038;11.684;2022-08-06T10:35:52;21.00;99.90
7296;DHT22;40758;54.038;11.684;2022-08-06T10:38:34;23.00;99.90
7296;DHT22;40758;54.038;11.684;2022-08-06T10:41:12;24.60;99.90
7296;DHT22;40758;54.038;11.684;2022-08-06T10:44:02;23.30;99.90
7296;DHT22;40758;54.038;11.684;2022-08-06T10:46:33;22.50;99.90
7296;DHT22;40758;54.038;11.684;2022-08-06T10:49:05;22.40;99.90
7296;DHT22;40758;54.038;11.684;2022-08-06T10:51:56;22.00;99.90
7296;DHT22;40758;54.038;11.684;2022-08-06T10:54:31;21.10;99.90
7296;DHT22;40758;54.038;11.684;2022-08-06T10:57:01;20.90;99.90
7296;DHT22;40758;54.038;11.684;2022-08-06T10:59:40;21.30;99.90
7296;DHT22;40758;54.038;11.684;2022-08-06T11:02:28;21.00;99.90
7296;DHT22;40758;54.038;11.684;2022-08-06T11:05:20;20.60;99.90
7296;DHT22;40758;54.038;11.684;2022-08-06T11:08:31;20.20;99.90
7296;DHT22;40758;54.038;11.684;2022-08-06T11:11:39;19.80;99.90
7296;DHT22;40758;54.038;11.684;2022-08-06T11:14:36;19.80;99.90
7296;DHT22;40758;54.038;11.684;2022-08-06T11:17:07;19.90;99.90
7296;DHT22;40758;54.038;11.684;2022-08-06T11:19:40;20.10;99.90
7296;DHT22;40758;54.038;11.684;2022-08-06T11:22:34;20.40;99.90
7296;DHT22;40758;54.038;11.684;2022-08-06T11:25:37;20.60;99.90
7296;DHT22;40758;54.038;11.684;2022-08-06T11:28:10;20.80;99.90
7296;DHT22;40758;54.038;11.684;2022-08-06T11:30:44;21.00;99.90
7296;DHT22;40758;54.038;11.684;2022-08-06T11:33:15;21.10;99.90
7296;DHT22;40758;54.038;11.684;2022-08-06T11:35:48;21.00;99.90
7296;DHT22;40758;54.038;11.684;2022-08-06T11:41:47;22.50;99.90
7296;DHT22;40758;54.038;11.684;2022-08-06T11:44:31;23.60;99.90
7296;DHT22;40758;54.038;11.684;2022-08-06T11:47:14;23.50;99.90
7296;DHT22;40758;54.038;11.684;2022-08-06T11:50:00;22.80;99.90
7296;DHT22;40758;54.038;11.684;2022-08-06T11:52:42;21.80;99.90
7296;DHT22;40758;54.038;11.684;2022-08-06T11:55:14;21.10;99.90
7296;DHT22;40758;54.038;11.684;2022-08-06T11:58:17;20.40;99.90
7296;DHT22;40758;54.038;11.684;2022-08-06T12:00:57;19.80;99.90
7296;DHT22;40758;54.038;11.684;2022-08-06T12:03:47;19.50;99.90
7296;DHT22;40758;54.038;11.684;2022-08-06T12:06:20;19.10;99.90
7296;DHT22;40758;54.038;11.684;2022-08-06T12:09:11;18.80;99.90
7296;DHT22;40758;54.038;11.684;2022-08-06T12:12:31;18.90;99.90
7296;DHT22;40758;54.038;11.684;2022-08-06T12:15:35;19.00;99.90
7296;DHT22;40758;54.038;11.684;2022-08-06T12:18:24;19.80;99.90
7296;DHT22;40758;54.038;11.684;2022-08-06T12:20:58;21.20;99.90
7296;DHT22;40758;54.038;11.684;2022-08-06T12:23:27;22.50;99.90
7296;DHT22;40758;54.038;11.684;2022-08-06T12:26:18;23.70;99.90
7296;DHT22;40758;54.038;11.684;2022-08-06T12:29:06;25.10;99.90
7296;DHT22;40758;54.038;11.684;2022-08-06T12:31:40;25.80;99.90
7296;DHT22;40758;54.038;11.684;2022-08-06T12:34:26;25.50;99.90
7296;DHT22;40758;54.038;11.684;2022-08-06T12:37:01;25.40;99.90
7296;DHT22;40758;54.038;11.684;2022-08-06T12:39:38;24.80;99.20
7296;DHT22;40758;54.038;11.684;2022-08-06T12:42:27;25.10;99.90
7296;DHT22;40758;54.038;11.684;2022-08-06T12:45:20;25.30;99.90
7296;DHT22;40758;54.038;11.684;2022-08-06T12:48:14;24.60;99.90
7296;DHT22;40758;54.038;11.684;2022-08-06T12:50:44;24.00;99.90
7296;DHT22;40758;54.038;11.684;2022-08-06T12:53:17;24.20;99.90
7296;DHT22;40758;54.038;11.684;2022-08-06T12:55:49;24.30;99.90
7296;DHT22;40758;54.038;11.684;2022-08-06T12:58:26;24.30;99.90
7296;DHT22;40758;54.038;11.684;2022-08-06T13:01:12;24.20;99.90
7296;DHT22;40758;54.038;11.684;2022-08-06T13:04:08;24.10;99.90
7296;DHT22;40758;54.038;11.684;2022-08-06T13:06:43;24.40;99.90
7296;DHT22;40758;54.038;11.684;2022-08-06T13:09:15;24.60;99.90
7296;DHT22;40758;54.038;11.684;2022-08-06T13:11:47;24.40;99.90
7296;DHT22;40758;54.038;11.684;2022-08-06T13:14:17;24.70;99.90
7296;DHT22;40758;54.038;11.684;2022-08-06T13:16:48;24.80;99.90
7296;DHT22;40758;54.038;11.684;2022-08-06T13:19:24;25.10;99.90
7296;DHT22;40758;54.038;11.684;2022-08-06T13:22:05;25.00;98.50
7296;DHT22;40758;54.038;11.684;2022-08-06T13:24:45;24.40;98.10
7296;DHT22;40758;54.038;11.684;2022-08-06T13:27:32;24.40;97.70
7296;DHT22;40758;54.038;11.684;2022-08-06T13:30:08;24.50;99.90
7296;DHT22;40758;54.038;11.684;2022-08-06T13:33:11;25.20;99.90
7296;DHT22;40758;54.038;11.684;2022-08-06T13:35:45;25.60;99.30
7296;DHT22;40758;54.038;11.684;2022-08-06T13:38:26;25.90;99.00
7296;DHT22;40758;54.038;11.684;2022-08-06T13:40:56;26.40;99.90
7296;DHT22;40758;54.038;11.684;2022-08-06T13:43:35;26.50;94.00
7296;DHT22;40758;54.038;11.684;2022-08-06T13:46:22;26.60;94.00
7296;DHT22;40758;54.038;11.684;2022-08-06T13:48:56;26.60;92.60
7296;DHT22;40758;54.038;11.684;2022-08-06T13:51:39;26.40;91.60
7296;DHT22;40758;54.038;11.684;2022-08-06T13:54:20;26.00;91.90
7296;DHT22;40758;54.038;11.684;2022-08-06T13:56:50;25.90;91.30
7296;DHT22;40758;54.038;11.684;2022-08-06T13:59:29;25.90;93.30
7296;DHT22;40758;54.038;11.684;2022-08-06T14:02:09;26.10;92.50
7296;DHT22;40758;54.038;11.684;2022-08-06T14:04:39;26.20;92.20
7296;DHT22;40758;54.038;11.684;2022-08-06T14:07:18;26.50;92.20
7296;DHT22;40758;54.038;11.684;2022-08-06T14:09:48;27.10;93.00
7296;DHT22;40758;54.038;11.684;2022-08-06T14:12:40;26.90;89.00
7296;DHT22;40758;54.038;11.684;2022-08-06T14:15:11;26.50;92.60
7296;DHT22;40758;54.038;11.684;2022-08-06T14:17:41;26.30;93.10
7296;DHT22;40758;54.038;11.684;2022-08-06T14:20:13;25.20;91.10
7296;DHT22;40758;54.038;11.684;2022-08-06T14:22:55;24.20;94.90
7296;DHT22;40758;54.038;11.684;2022-08-06T14:25:31;23.50;98.20
7296;DHT22;40758;54.038;11.684;2022-08-06T14:28:21;24.10;98.30
7296;DHT22;40758;54.038;11.684;2022-08-06T14:30:53;25.40;96.70
7296;DHT22;40758;54.038;11.684;2022-08-06T14:33:23;26.00;93.60
7296;DHT22;40758;54.038;11.684;2022-08-06T14:36:05;26.30;92.10
7296;DHT22;40758;54.038;11.684;2022-08-06T14:38:36;26.60;93.00
7296;DHT22;40758;54.038;11.684;2022-08-06T14:41:08;27.20;91.80
7296;DHT22;40758;54.038;11.684;2022-08-06T14:44:18;27.10;83.80
7296;DHT22;40758;54.038;11.684;2022-08-06T14:47:06;25.80;80.70
7296;DHT22;40758;54.038;11.684;2022-08-06T14:49:37;23.90;89.20
7296;DHT22;40758;54.038;11.684;2022-08-06T14:52:21;23.30;92.00
7296;DHT22;40758;54.038;11.684;2022-08-06T14:54:52;22.70;94.90
7296;DHT22;40758;54.038;11.684;2022-08-06T14:57:34;22.10;95.90
7296;DHT22;40758;54.038;11.684;2022-08-06T15:00:30;21.70;99.90
7296;DHT22;40758;54.038;11.684;2022-08-06T15:03:04;21.50;99.90
7296;DHT22;40758;54.038;11.684;2022-08-06T15:05:40;21.20;99.90
7296;DHT22;40758;54.038;11.684;2022-08-06T15:08:29;21.00;99.90
7296;DHT22;40758;54.038;11.684;2022-08-06T15:11:02;20.90;99.90
7296;DHT22;40758;54.038;11.684;2022-08-06T15:13:44;20.70;99.90
7296;DHT22;40758;54.038;11.684;2022-08-06T15:16:19;20.60;99.90
7296;DHT22;40758;54.038;11.684;2022-08-06T15:19:08;20.40;99.90
7296;DHT22;40758;54.038;11.684;2022-08-06T15:22:04;20.20;99.90
7296;DHT22;40758;54.038;11.684;2022-08-06T15:24:38;20.00;99.90
7296;DHT22;40758;54.038;11.684;2022-08-06T15:27:09;19.80;99.90
7296;DHT22;40758;54.038;11.684;2022-08-06T15:29:53;19.70;99.90
7296;DHT22;40758;54.038;11.684;2022-08-06T15:32:24;19.70;99.90
7296;DHT22;40758;54.038;11.684;2022-08-06T15:34:55;19.80;99.90
7296;DHT22;40758;54.038;11.684;2022-08-06T15:37:25;19.80;99.90
7296;DHT22;40758;54.038;11.684;2022-08-06T15:40:14;19.90;99.90
7296;DHT22;40758;54.038;11.684;2022-08-06T15:42:48;20.00;99.90
7296;DHT22;40758;54.038;11.684;2022-08-06T15:45:20;20.00;99.90
7296;DHT22;40758;54.038;11.684;2022-08-06T15:48:09;19.90;99.90
7296;DHT22;40758;54.038;11.684;2022-08-06T15:50:41;19.70;99.90
7296;DHT22;40758;54.038;11.684;2022-08-06T15:53:33;19.50;99.90
7296;DHT22;40758;54.038;11.684;2022-08-06T15:56:03;19.40;99.90
7296;DHT22;40758;54.038;11.684;2022-08-06T15:58:34;19.30;99.90
7296;DHT22;40758;54.038;11.684;2022-08-06T16:01:04;19.30;99.90
7296;DHT22;40758;54.038;11.684;2022-08-06T16:03:34;19.20;99.90
7296;DHT22;40758;54.038;11.684;2022-08-06T16:06:24;19.20;99.90
7296;DHT22;40758;54.038;11.684;2022-08-06T16:08:55;19.30;99.90
7296;DHT22;40758;54.038;11.684;2022-08-06T16:11:26;19.60;99.90
7296;DHT22;40758;54.038;11.684;2022-08-06T16:14:16;20.00;99.90
7296;DHT22;40758;54.038;11.684;2022-08-06T16:17:00;20.40;99.90
7296;DHT22;40758;54.038;11.684;2022-08-06T16:19:36;20.80;99.90
7296;DHT22;40758;54.038;11.684;2022-08-06T16:22:17;20.80;99.90
7296;DHT22;40758;54.038;11.684;2022-08-06T16:24:46;20.70;99.90
7296;DHT22;40758;54.038;11.684;2022-08-06T16:27:19;20.70;99.90
7296;DHT22;40758;54.038;11.684;2022-08-06T16:30:07;20.50;99.90
7296;DHT22;40758;54.038;11.684;2022-08-06T16:32:41;20.30;99.90
7296;DHT22;40758;54.038;11.684;2022-08-06T16:35:14;20.20;99.90
7296;DHT22;40758;54.038;11.684;2022-08-06T16:37:48;20.00;99.90
7296;DHT22;40758;54.038;11.684;2022-08-06T16:40:38;20.00;99.90
7296;DHT22;40758;54.038;11.684;2022-08-06T16:43:19;19.90;99.90
7296;DHT22;40758;54.038;11.684;2022-08-06T16:45:56;19.80;99.90
7296;DHT22;40758;54.038;11.684;2022-08-06T16:48:25;19.70;99.90
7296;DHT22;40758;54.038;11.684;2022-08-06T16:50:55;19.80;99.90
7296;DHT22;40758;54.038;11.684;2022-08-06T16:53:29;19.80;99.90
7296;DHT22;40758;54.038;11.684;2022-08-06T16:56:18;19.80;99.90